sensor_id;sensor_type;location;lat;lon;timestamp;temperature;humidity
3194;DHT22;1608;50.860;13.466;2023-04-15T00:01:12;10.00;99.90
3194;DHT22;1608;50.860;13.466;2023-04-15T00:03:43;10.10;99.90
3194;DHT22;1608;50.860;13.466;2023-04-15T00:06:10;10.10;99.90
3194;DHT22;1608;50.860;13.466;2023-04-15T00:08:39;10.10;99.90
3194;DHT22;1608;50.860;13.466;2023-04-15T00:11:06;10.10;99.90
3194;DHT22;1608;50.860;13.466;2023-04-15T00:13:33;10.10;99.90
3194;DHT22;1608;50.860;13.466;2023-04-15T00:16:00;10.00;99.90
3194;DHT22;1608;50.860;13.466;2023-04-15T00:18:27;10.00;99.90
3194;DHT22;1608;50.860;13.466;2023-04-15T00:20:54;10.00;99.90
3194;DHT22;1608;50.860;13.466;2023-04-15T00:23:21;10.00;99.90
3194;DHT22;1608;50.860;13.466;2023-04-15T00:25:49;10.00;99.90
3194;DHT22;1608;50.860;13.466;2023-04-15T00:28:16;10.00;99.90
3194;DHT22;1608;50.860;13.466;2023-04-15T00:30:43;10.00;99.90
3194;DHT22;1608;50.860;13.466;2023-04-15T00:33:11;10.00;99.90
3194;DHT22;1608;50.860;13.466;2023-04-15T00:35:38;10.00;99.90
3194;DHT22;1608;50.860;13.466;2023-04-15T00:38:05;10.00;99.90
3194;DHT22;1608;50.860;13.466;2023-04-15T00:40:32;10.00;99.90
3194;DHT22;1608;50.860;13.466;2023-04-15T00:43:01;10.10;99.90
3194;DHT22;1608;50.860;13.466;2023-04-15T00:45:28;10.10;99.90
3194;DHT22;1608;50.860;13.466;2023-04-15T00:47:56;10.00;99.90
3194;DHT22;1608;50.860;13.466;2023-04-15T00:50:24;10.00;99.90
3194;DHT22;1608;50.860;13.466;2023-04-15T00:52:50;10.00;99.90
3194;DHT22;1608;50.860;13.466;2023-04-15T00:55:17;10.00;99.90
3194;DHT22;1608;50.860;13.466;2023-04-15T00:57:44;10.00;99.90
3194;DHT22;1608;50.860;13.466;2023-04-15T01:00:13;10.00;99.90
3194;DHT22;1608;50.860;13.466;2023-04-15T01:02:41;10.00;99.90
3194;DHT22;1608;50.860;13.466;2023-04-15T01:05:08;10.00;99.90
3194;DHT22;1608;50.860;13.466;2023-04-15T01:07:35;10.00;99.90
3194;DHT22;1608;50.860;13.466;2023-04-15T01:10:02;10.00;99.90
3194;DHT22;1608;50.860;13.466;2023-04-15T01:12:31;10.00;99.90
3194;DHT22;1608;50.860;13.466;2023-04-15T01:14:59;10.00;99.90
3194;DHT22;1608;50.860;13.466;2023-04-15T01:17:28;10.00;99.90
3194;DHT22;1608;50.860;13.466;2023-04-15T01:19:56;10.00;99.90
3194;DHT22;1608;50.860;13.466;2023-04-15T01:22:23;10.00;99.90
3194;DHT22;1608;50.860;13.466;2023-04-15T01:24:55;9.90;99.90
3194;DHT22;1608;50.860;13.466;2023-04-15T01:27:27;10.00;99.90
3194;DHT22;1608;50.860;13.466;2023-04-15T01:29:54;9.90;99.90
3194;DHT22;1608;50.860;13.466;2023-04-15T01:32:22;9.90;99.90
3194;DHT22;1608;50.860;13.466;2023-04-15T01:34:48;9.80;99.90
3194;DHT22;1608;50.860;13.466;2023-04-15T01:37:15;9.80;99.90
3194;DHT22;1608;50.860;13.466;2023-04-15T01:39:42;9.90;99.90
3194;DHT22;1608;50.860;13.466;2023-04-15T01:42:09;9.90;99.90
3194;DHT22;1608;50.860;13.466;2023-04-15T01:44:38;9.90;99.90
3194;DHT22;1608;50.860;13.466;2023-04-15T01:47:05;9.90;99.90
3194;DHT22;1608;50.860;13.466;2023-04-15T01:49:33;9.90;99.90
3194;DHT22;1608;50.860;13.466;2023-04-15T01:52:00;9.90;99.90
3194;DHT22;1608;50.860;13.466;2023-04-15T01:54:26;10.00;99.90
3194;DHT22;1608;50.860;13.466;2023-04-15T01:56:53;10.00;99.90
3194;DHT22;1608;50.860;13.466;2023-04-15T01:59:21;10.00;99.90
3194;DHT22;1608;50.860;13.466;2023-04-15T02:01:49;9.90;99.90
3194;DHT22;1608;50.860;13.466;2023-04-15T02:04:16;10.00;99.90
3194;DHT22;1608;50.860;13.466;2023-04-15T02:06:43;9.90;99.90
3194;DHT22;1608;50.860;13.466;2023-04-15T02:09:10;9.80;99.90
3194;DHT22;1608;50.860;13.466;2023-04-15T02:11:37;9.80;99.90
3194;DHT22;1608;50.860;13.466;2023-04-15T02:14:04;9.80;99.90
3194;DHT22;1608;50.860;13.466;2023-04-15T02:16:31;9.80;99.90
3194;DHT22;1608;50.860;13.466;2023-04-15T02:19:00;9.90;99.90
3194;DHT22;1608;50.860;13.466;2023-04-15T02:21:27;9.90;99.90
3194;DHT22;1608;50.860;13.466;2023-04-15T02:23:54;9.90;99.90
3194;DHT22;1608;50.860;13.466;2023-04-15T02:26:21;9.90;99.90
3194;DHT22;1608;50.860;13.466;2023-04-15T02:28:50;10.00;99.90
3194;DHT22;1608;50.860;13.466;2023-04-15T02:31:16;10.00;99.90
3194;DHT22;1608;50.860;13.466;2023-04-15T02:33:43;10.00;99.90
3194;DHT22;1608;50.860;13.466;2023-04-15T02:36:12;9.90;99.90
3194;DHT22;1608;50.860;13.466;2023-04-15T02:38:39;9.90;99.90
3194;DHT22;1608;50.860;13.466;2023-04-15T02:41:08;9.90;99.90
3194;DHT22;1608;50.860;13.466;2023-04-15T02:43:35;9.90;99.90
3194;DHT22;1608;50.860;13.466;2023-04-15T02:46:02;9.90;99.90
3194;DHT22;1608;50.860;13.466;2023-04-15T02:48:29;9.90;99.90
3194;DHT22;1608;50.860;13.466;2023-04-15T02:51:12;10.00;99.90
3194;DHT22;1608;50.860;13.466;2023-04-15T02:53:38;10.00;99.90
3194;DHT22;1608;50.860;13.466;2023-04-15T02:56:06;10.00;99.90
3194;DHT22;1608;50.860;13.466;2023-04-15T02:58:34;10.00;99.90
3194;DHT22;1608;50.860;13.466;2023-04-15T03:01:01;9.90;99.90
3194;DHT22;1608;50.860;13.466;2023-04-15T03:03:28;10.00;99.90
3194;DHT22;1608;50.860;13.466;2023-04-15T03:05:55;10.00;99.90
3194;DHT22;1608;50.860;13.466;2023-04-15T03:08:23;9.90;99.90
3194;DHT22;1608;50.860;13.466;2023-04-15T03:10:50;10.00;99.90
3194;DHT22;1608;50.860;13.466;2023-04-15T03:13:18;10.00;99.90
3194;DHT22;1608;50.860;13.466;2023-04-15T03:15:45;9.90;99.90
3194;DHT22;1608;50.860;13.466;2023-04-15T03:18:12;10.00;99.90
3194;DHT22;1608;50.860;13.466;2023-04-15T03:20:40;10.00;99.90
3194;DHT22;1608;50.860;13.466;2023-04-15T03:23:06;10.00;99.90
3194;DHT22;1608;50.860;13.466;2023-04-15T03:25:35;10.00;99.90
3194;DHT22;1608;50.860;13.466;2023-04-15T03:28:02;10.00;99.90
3194;DHT22;1608;50.860;13.466;2023-04-15T03:30:29;10.00;99.90
3194;DHT22;1608;50.860;13.466;2023-04-15T03:32:56;10.00;99.90
3194;DHT22;1608;50.860;13.466;2023-04-15T03:35:23;9.90;99.90
3194;DHT22;1608;50.860;13.466;2023-04-15T03:37:50;9.90;99.90
3194;DHT22;1608;50.860;13.466;2023-04-15T03:40:16;10.40;99.90
3194;DHT22;1608;50.860;13.466;2023-04-15T03:42:44;9.90;99.90
3194;DHT22;1608;50.860;13.466;2023-04-15T03:45:11;10.00;99.90
3194;DHT22;1608;50.860;13.466;2023-04-15T03:47:38;9.90;99.90
3194;DHT22;1608;50.860;13.466;2023-04-15T03:50:06;9.90;99.90
3194;DHT22;1608;50.860;13.466;2023-04-15T03:52:33;10.00;99.90
3194;DHT22;1608;50.860;13.466;2023-04-15T03:55:00;10.00;99.90
3194;DHT22;1608;50.860;13.466;2023-04-15T03:57:27;10.00;99.90
3194;DHT22;1608;50.860;13.466;2023-04-15T03:59:55;10.10;99.90
3194;DHT22;1608;50.860;13.466;2023-04-15T04:02:22;10.00;99.90
3194;DHT22;1608;50.860;13.466;2023-04-15T04:04:48;10.00;99.90
3194;DHT22;1608;50.860;13.466;2023-04-15T04:07:15;10.00;99.90
3194;DHT22;1608;50.860;13.466;2023-04-15T04:09:42;10.10;99.90
3194;DHT22;1608;50.860;13.466;2023-04-15T04:12:09;10.00;99.90
3194;DHT22;1608;50.860;13.466;2023-04-15T04:14:36;10.00;99.90
3194;DHT22;1608;50.860;13.466;2023-04-15T04:17:04;10.00;99.90
3194;DHT22;1608;50.860;13.466;2023-04-15T04:19:31;10.00;99.90
3194;DHT22;1608;50.860;13.466;2023-04-15T04:21:58;10.00;99.90
3194;DHT22;1608;50.860;13.466;2023-04-15T04:24:25;9.90;99.90
3194;DHT22;1608;50.860;13.466;2023-04-15T04:26:52;9.80;99.90
3194;DHT22;1608;50.860;13.466;2023-04-15T04:29:18;9.80;99.90
3194;DHT22;1608;50.860;13.466;2023-04-15T04:31:45;9.70;99.90
3194;DHT22;1608;50.860;13.466;2023-04-15T04:34:14;9.70;99.90
3194;DHT22;1608;50.860;13.466;2023-04-15T04:36:41;9.70;99.90
3194;DHT22;1608;50.860;13.466;2023-04-15T04:39:08;9.70;99.90
3194;DHT22;1608;50.860;13.466;2023-04-15T04:41:35;9.70;99.90
3194;DHT22;1608;50.860;13.466;2023-04-15T04:44:01;9.70;99.90
3194;DHT22;1608;50.860;13.466;2023-04-15T04:46:28;9.80;99.90
3194;DHT22;1608;50.860;13.466;2023-04-15T04:48:55;9.80;99.90
3194;DHT22;1608;50.860;13.466;2023-04-15T04:51:23;9.80;99.90
3194;DHT22;1608;50.860;13.466;2023-04-15T04:53:50;9.80;99.90
3194;DHT22;1608;50.860;13.466;2023-04-15T04:56:17;9.80;99.90
3194;DHT22;1608;50.860;13.466;2023-04-15T04:58:44;9.70;99.90
3194;DHT22;1608;50.860;13.466;2023-04-15T05:01:11;9.70;99.90
3194;DHT22;1608;50.860;13.466;2023-04-15T05:03:38;9.70;99.90
3194;DHT22;1608;50.860;13.466;2023-04-15T05:06:05;9.80;99.90
3194;DHT22;1608;50.860;13.466;2023-04-15T05:08:34;9.80;99.90
3194;DHT22;1608;50.860;13.466;2023-04-15T05:11:01;9.90;99.90
3194;DHT22;1608;50.860;13.466;2023-04-15T05:13:28;10.00;99.90
3194;DHT22;1608;50.860;13.466;2023-04-15T05:15:55;10.00;99.90
3194;DHT22;1608;50.860;13.466;2023-04-15T05:18:22;10.00;99.90
3194;DHT22;1608;50.860;13.466;2023-04-15T05:20:49;10.00;99.90
3194;DHT22;1608;50.860;13.466;2023-04-15T05:23:16;10.10;99.90
3194;DHT22;1608;50.860;13.466;2023-04-15T05:25:44;10.10;99.90
3194;DHT22;1608;50.860;13.466;2023-04-15T05:28:11;10.10;99.90
3194;DHT22;1608;50.860;13.466;2023-04-15T05:30:38;10.10;99.90
3194;DHT22;1608;50.860;13.466;2023-04-15T05:33:05;10.20;99.90
3194;DHT22;1608;50.860;13.466;2023-04-15T05:35:32;10.20;99.90
3194;DHT22;1608;50.860;13.466;2023-04-15T05:37:59;10.20;99.90
3194;DHT22;1608;50.860;13.466;2023-04-15T05:40:26;10.20;99.90
3194;DHT22;1608;50.860;13.466;2023-04-15T05:42:54;10.20;99.90
3194;DHT22;1608;50.860;13.466;2023-04-15T05:45:21;10.20;99.90
3194;DHT22;1608;50.860;13.466;2023-04-15T05:47:47;10.20;99.90
3194;DHT22;1608;50.860;13.466;2023-04-15T05:50:15;10.30;99.90
3194;DHT22;1608;50.860;13.466;2023-04-15T05:52:42;10.30;99.90
3194;DHT22;1608;50.860;13.466;2023-04-15T05:55:10;10.30;99.90
3194;DHT22;1608;50.860;13.466;2023-04-15T05:57:37;10.40;99.90
3194;DHT22;1608;50.860;13.466;2023-04-15T06:00:06;10.40;99.90
3194;DHT22;1608;50.860;13.466;2023-04-15T06:02:33;10.40;99.90
3194;DHT22;1608;50.860;13.466;2023-04-15T06:05:00;10.50;99.90
3194;DHT22;1608;50.860;13.466;2023-04-15T06:07:28;10.60;99.90
3194;DHT22;1608;50.860;13.466;2023-04-15T06:09:55;10.70;99.90
3194;DHT22;1608;50.860;13.466;2023-04-15T06:12:22;10.80;99.90
3194;DHT22;1608;50.860;13.466;2023-04-15T06:14:48;10.70;99.90
3194;DHT22;1608;50.860;13.466;2023-04-15T06:17:17;10.70;99.90
3194;DHT22;1608;50.860;13.466;2023-04-15T06:19:43;10.70;99.90
3194;DHT22;1608;50.860;13.466;2023-04-15T06:22:10;10.80;99.90
3194;DHT22;1608;50.860;13.466;2023-04-15T06:24:37;10.90;99.90
3194;DHT22;1608;50.860;13.466;2023-04-15T06:27:04;10.90;99.90
3194;DHT22;1608;50.860;13.466;2023-04-15T06:29:31;10.80;99.90
3194;DHT22;1608;50.860;13.466;2023-04-15T06:31:57;10.80;99.90
3194;DHT22;1608;50.860;13.466;2023-04-15T06:34:26;10.80;99.90
3194;DHT22;1608;50.860;13.466;2023-04-15T06:36:53;10.80;99.90
3194;DHT22;1608;50.860;13.466;2023-04-15T06:39:20;10.80;99.90
3194;DHT22;1608;50.860;13.466;2023-04-15T06:41:46;10.90;99.90
3194;DHT22;1608;50.860;13.466;2023-04-15T06:44:14;10.90;99.90
3194;DHT22;1608;50.860;13.466;2023-04-15T06:46:41;10.90;99.90
3194;DHT22;1608;50.860;13.466;2023-04-15T06:49:08;10.90;99.90
3194;DHT22;1608;50.860;13.466;2023-04-15T06:51:36;11.00;99.90
3194;DHT22;1608;50.860;13.466;2023-04-15T06:54:03;11.00;99.90
3194;DHT22;1608;50.860;13.466;2023-04-15T06:56:30;11.00;99.90
3194;DHT22;1608;50.860;13.466;2023-04-15T06:58:57;11.00;99.90
3194;DHT22;1608;50.860;13.466;2023-04-15T07:01:24;11.00;99.90
3194;DHT22;1608;50.860;13.466;2023-04-15T07:03:51;11.00;99.90
3194;DHT22;1608;50.860;13.466;2023-04-15T07:06:18;11.00;99.90
3194;DHT22;1608;50.860;13.466;2023-04-15T07:08:47;11.00;99.90
3194;DHT22;1608;50.860;13.466;2023-04-15T07:11:14;11.10;99.90
3194;DHT22;1608;50.860;13.466;2023-04-15T07:13:42;11.10;99.90
3194;DHT22;1608;50.860;13.466;2023-04-15T07:16:08;11.20;99.90
3194;DHT22;1608;50.860;13.466;2023-04-15T07:18:35;11.20;99.90
3194;DHT22;1608;50.860;13.466;2023-04-15T07:21:02;11.20;99.90
3194;DHT22;1608;50.860;13.466;2023-04-15T07:23:29;11.20;99.90
3194;DHT22;1608;50.860;13.466;2023-04-15T07:25:57;11.40;99.90
3194;DHT22;1608;50.860;13.466;2023-04-15T07:28:24;11.50;99.90
3194;DHT22;1608;50.860;13.466;2023-04-15T07:30:51;11.60;99.90
3194;DHT22;1608;50.860;13.466;2023-04-15T07:33:18;11.60;99.90
3194;DHT22;1608;50.860;13.466;2023-04-15T07:35:45;11.60;99.90
3194;DHT22;1608;50.860;13.466;2023-04-15T07:38:11;11.60;99.90
3194;DHT22;1608;50.860;13.466;2023-04-15T07:40:38;11.80;99.90
3194;DHT22;1608;50.860;13.466;2023-04-15T07:43:08;12.00;99.90
3194;DHT22;1608;50.860;13.466;2023-04-15T07:45:35;12.20;99.90
3194;DHT22;1608;50.860;13.466;2023-04-15T07:48:02;12.20;99.90
3194;DHT22;1608;50.860;13.466;2023-04-15T07:50:29;12.30;99.90
3194;DHT22;1608;50.860;13.466;2023-04-15T07:52:55;12.40;99.90
3194;DHT22;1608;50.860;13.466;2023-04-15T07:55:23;12.60;99.90
3194;DHT22;1608;50.860;13.466;2023-04-15T07:57:49;12.90;99.90
3194;DHT22;1608;50.860;13.466;2023-04-15T08:00:18;13.20;99.90
3194;DHT22;1608;50.860;13.466;2023-04-15T08:02:45;13.40;99.90
3194;DHT22;1608;50.860;13.466;2023-04-15T08:05:13;13.30;99.90
3194;DHT22;1608;50.860;13.466;2023-04-15T08:07:40;13.40;99.90
3194;DHT22;1608;50.860;13.466;2023-04-15T08:10:07;13.40;99.90
3194;DHT22;1608;50.860;13.466;2023-04-15T08:12:34;13.40;99.90
3194;DHT22;1608;50.860;13.466;2023-04-15T08:15:01;13.40;99.90
3194;DHT22;1608;50.860;13.466;2023-04-15T08:17:29;13.50;99.90
3194;DHT22;1608;50.860;13.466;2023-04-15T08:19:56;13.60;99.90
3194;DHT22;1608;50.860;13.466;2023-04-15T08:22:23;13.80;99.90
3194;DHT22;1608;50.860;13.466;2023-04-15T08:24:50;13.80;99.90
3194;DHT22;1608;50.860;13.466;2023-04-15T08:27:16;13.80;99.90
3194;DHT22;1608;50.860;13.466;2023-04-15T08:29:43;13.70;99.90
3194;DHT22;1608;50.860;13.466;2023-04-15T08:32:10;13.60;99.90
3194;DHT22;1608;50.860;13.466;2023-04-15T08:34:39;13.40;99.90
3194;DHT22;1608;50.860;13.466;2023-04-15T08:37:05;13.30;99.90
3194;DHT22;1608;50.860;13.466;2023-04-15T08:39:32;13.70;99.90
3194;DHT22;1608;50.860;13.466;2023-04-15T08:42:01;14.10;99.90
3194;DHT22;1608;50.860;13.466;2023-04-15T08:44:29;14.40;99.90
3194;DHT22;1608;50.860;13.466;2023-04-15T08:47:00;14.60;99.90
3194;DHT22;1608;50.860;13.466;2023-04-15T08:49:28;14.60;99.90
3194;DHT22;1608;50.860;13.466;2023-04-15T08:51:58;14.70;99.90
3194;DHT22;1608;50.860;13.466;2023-04-15T08:54:25;14.50;99.90
3194;DHT22;1608;50.860;13.466;2023-04-15T08:56:52;14.40;99.90
3194;DHT22;1608;50.860;13.466;2023-04-15T08:59:20;14.40;99.90
3194;DHT22;1608;50.860;13.466;2023-04-15T09:01:47;14.40;99.90
3194;DHT22;1608;50.860;13.466;2023-04-15T09:04:16;14.50;99.90
3194;DHT22;1608;50.860;13.466;2023-04-15T09:06:43;14.50;99.90
3194;DHT22;1608;50.860;13.466;2023-04-15T09:09:11;14.70;99.90
3194;DHT22;1608;50.860;13.466;2023-04-15T09:11:39;14.90;99.90
3194;DHT22;1608;50.860;13.466;2023-04-15T09:14:06;15.30;99.90
3194;DHT22;1608;50.860;13.466;2023-04-15T09:16:57;15.90;99.90
3194;DHT22;1608;50.860;13.466;2023-04-15T09:19:24;16.30;99.90
3194;DHT22;1608;50.860;13.466;2023-04-15T09:21:52;16.70;99.90
3194;DHT22;1608;50.860;13.466;2023-04-15T09:24:21;16.90;99.90
3194;DHT22;1608;50.860;13.466;2023-04-15T09:26:51;17.20;99.90
3194;DHT22;1608;50.860;13.466;2023-04-15T09:29:18;17.30;99.90
3194;DHT22;1608;50.860;13.466;2023-04-15T09:31:45;17.10;99.90
3194;DHT22;1608;50.860;13.466;2023-04-15T09:34:12;16.90;99.90
3194;DHT22;1608;50.860;13.466;2023-04-15T09:36:52;16.40;99.90
3194;DHT22;1608;50.860;13.466;2023-04-15T09:39:20;16.00;99.90
3194;DHT22;1608;50.860;13.466;2023-04-15T09:42:02;15.60;99.90
3194;DHT22;1608;50.860;13.466;2023-04-15T09:44:30;15.40;99.90
3194;DHT22;1608;50.860;13.466;2023-04-15T09:46:56;15.30;99.90
3194;DHT22;1608;50.860;13.466;2023-04-15T09:49:23;15.30;99.90
3194;DHT22;1608;50.860;13.466;2023-04-15T09:51:50;15.50;99.90
3194;DHT22;1608;50.860;13.466;2023-04-15T09:54:18;15.60;99.90
3194;DHT22;1608;50.860;13.466;2023-04-15T09:56:47;15.60;99.90
3194;DHT22;1608;50.860;13.466;2023-04-15T09:59:14;15.50;99.90
3194;DHT22;1608;50.860;13.466;2023-04-15T10:01:41;15.50;99.90
3194;DHT22;1608;50.860;13.466;2023-04-15T10:04:09;15.60;99.90
3194;DHT22;1608;50.860;13.466;2023-04-15T10:06:36;15.60;99.90
3194;DHT22;1608;50.860;13.466;2023-04-15T10:09:03;15.60;99.90
3194;DHT22;1608;50.860;13.466;2023-04-15T10:11:32;15.80;99.90
3194;DHT22;1608;50.860;13.466;2023-04-15T10:14:02;16.20;99.90
3194;DHT22;1608;50.860;13.466;2023-04-15T10:16:31;16.80;99.90
3194;DHT22;1608;50.860;13.466;2023-04-15T10:19:00;15.60;99.90
3194;DHT22;1608;50.860;13.466;2023-04-15T10:21:29;17.30;99.90
3194;DHT22;1608;50.860;13.466;2023-04-15T10:23:57;17.00;99.90
3194;DHT22;1608;50.860;13.466;2023-04-15T10:26:24;16.70;99.90
3194;DHT22;1608;50.860;13.466;2023-04-15T10:28:52;16.50;99.90
3194;DHT22;1608;50.860;13.466;2023-04-15T10:31:20;16.40;99.90
3194;DHT22;1608;50.860;13.466;2023-04-15T10:33:48;16.40;99.90
3194;DHT22;1608;50.860;13.466;2023-04-15T10:36:16;16.30;99.90
3194;DHT22;1608;50.860;13.466;2023-04-15T10:38:44;16.30;99.90
3194;DHT22;1608;50.860;13.466;2023-04-15T10:41:17;16.30;99.90
3194;DHT22;1608;50.860;13.466;2023-04-15T10:43:49;16.00;99.90
3194;DHT22;1608;50.860;13.466;2023-04-15T10:46:34;15.70;99.90
3194;DHT22;1608;50.860;13.466;2023-04-15T10:49:06;15.60;99.90
3194;DHT22;1608;50.860;13.466;2023-04-15T10:51:37;15.60;99.90
3194;DHT22;1608;50.860;13.466;2023-04-15T10:54:08;15.70;99.90
3194;DHT22;1608;50.860;13.466;2023-04-15T10:56:35;15.80;99.90
3194;DHT22;1608;50.860;13.466;2023-04-15T10:59:04;15.80;99.90
3194;DHT22;1608;50.860;13.466;2023-04-15T11:01:51;15.80;99.90
3194;DHT22;1608;50.860;13.466;2023-04-15T11:04:50;15.80;99.90
3194;DHT22;1608;50.860;13.466;2023-04-15T11:07:32;15.60;99.90
3194;DHT22;1608;50.860;13.466;2023-04-15T11:09:59;15.50;99.90
3194;DHT22;1608;50.860;13.466;2023-04-15T11:12:33;15.60;99.90
3194;DHT22;1608;50.860;13.466;2023-04-15T11:15:26;15.70;99.90
3194;DHT22;1608;50.860;13.466;2023-04-15T11:17:54;16.00;99.90
3194;DHT22;1608;50.860;13.466;2023-04-15T11:20:22;16.20;99.90
3194;DHT22;1608;50.860;13.466;2023-04-15T11:22:50;16.40;99.90
3194;DHT22;1608;50.860;13.466;2023-04-15T11:25:24;16.30;99.90
3194;DHT22;1608;50.860;13.466;2023-04-15T11:27:51;16.30;99.90
3194;DHT22;1608;50.860;13.466;2023-04-15T11:30:20;16.30;99.90
3194;DHT22;1608;50.860;13.466;2023-04-15T11:32:47;16.20;99.90
3194;DHT22;1608;50.860;13.466;2023-04-15T11:35:15;15.80;99.90
3194;DHT22;1608;50.860;13.466;2023-04-15T11:37:43;15.80;99.90
3194;DHT22;1608;50.860;13.466;2023-04-15T11:40:10;15.40;99.90
3194;DHT22;1608;50.860;13.466;2023-04-15T11:42:37;15.10;99.90
3194;DHT22;1608;50.860;13.466;2023-04-15T11:45:08;14.80;99.90
3194;DHT22;1608;50.860;13.466;2023-04-15T11:47:35;14.80;99.90
3194;DHT22;1608;50.860;13.466;2023-04-15T11:50:18;14.60;99.90
3194;DHT22;1608;50.860;13.466;2023-04-15T11:52:54;14.30;99.90
3194;DHT22;1608;50.860;13.466;2023-04-15T11:55:22;14.20;99.90
3194;DHT22;1608;50.860;13.466;2023-04-15T11:57:49;14.20;99.90
3194;DHT22;1608;50.860;13.466;2023-04-15T12:00:16;14.20;99.90
3194;DHT22;1608;50.860;13.466;2023-04-15T12:02:45;14.10;99.90
3194;DHT22;1608;50.860;13.466;2023-04-15T12:05:12;13.80;99.90
3194;DHT22;1608;50.860;13.466;2023-04-15T12:07:58;13.80;99.90
3194;DHT22;1608;50.860;13.466;2023-04-15T12:10:25;13.70;99.90
3194;DHT22;1608;50.860;13.466;2023-04-15T12:12:52;13.60;99.90
3194;DHT22;1608;50.860;13.466;2023-04-15T12:15:21;13.50;99.90
3194;DHT22;1608;50.860;13.466;2023-04-15T12:17:48;13.50;99.90
3194;DHT22;1608;50.860;13.466;2023-04-15T12:20:20;13.50;99.90
3194;DHT22;1608;50.860;13.466;2023-04-15T12:22:50;13.60;99.90
3194;DHT22;1608;50.860;13.466;2023-04-15T12:25:33;13.50;99.90
3194;DHT22;1608;50.860;13.466;2023-04-15T12:27:59;13.50;99.90
3194;DHT22;1608;50.860;13.466;2023-04-15T12:30:26;13.50;99.90
3194;DHT22;1608;50.860;13.466;2023-04-15T12:32:53;13.30;99.90
3194;DHT22;1608;50.860;13.466;2023-04-15T12:35:21;13.40;99.90
3194;DHT22;1608;50.860;13.466;2023-04-15T12:37:47;13.40;99.90
3194;DHT22;1608;50.860;13.466;2023-04-15T12:40:19;13.20;99.90
3194;DHT22;1608;50.860;13.466;2023-04-15T12:42:45;13.00;99.90
3194;DHT22;1608;50.860;13.466;2023-04-15T12:45:13;13.10;99.90
3194;DHT22;1608;50.860;13.466;2023-04-15T12:47:39;13.20;99.90
3194;DHT22;1608;50.860;13.466;2023-04-15T12:50:07;13.20;99.90
3194;DHT22;1608;50.860;13.466;2023-04-15T12:52:34;13.30;99.90
3194;DHT22;1608;50.860;13.466;2023-04-15T12:55:00;13.30;99.90
3194;DHT22;1608;50.860;13.466;2023-04-15T12:57:29;13.30;99.90
3194;DHT22;1608;50.860;13.466;2023-04-15T12:59:55;13.40;99.90
3194;DHT22;1608;50.860;13.466;2023-04-15T13:02:22;13.20;99.90
3194;DHT22;1608;50.860;13.466;2023-04-15T13:04:49;13.20;99.90
3194;DHT22;1608;50.860;13.466;2023-04-15T13:07:16;13.10;99.90
3194;DHT22;1608;50.860;13.466;2023-04-15T13:09:43;13.20;99.90
3194;DHT22;1608;50.860;13.466;2023-04-15T13:12:11;13.10;99.90
3194;DHT22;1608;50.860;13.466;2023-04-15T13:14:40;13.10;99.90
3194;DHT22;1608;50.860;13.466;2023-04-15T13:17:07;13.00;99.90
3194;DHT22;1608;50.860;13.466;2023-04-15T13:19:34;13.00;99.90
3194;DHT22;1608;50.860;13.466;2023-04-15T13:22:01;13.00;99.90
3194;DHT22;1608;50.860;13.466;2023-04-15T13:24:28;12.90;99.90
3194;DHT22;1608;50.860;13.466;2023-04-15T13:26:55;13.00;99.90
3194;DHT22;1608;50.860;13.466;2023-04-15T13:29:23;13.10;99.90
3194;DHT22;1608;50.860;13.466;2023-04-15T13:31:51;13.20;99.90
3194;DHT22;1608;50.860;13.466;2023-04-15T13:34:18;13.20;99.90
3194;DHT22;1608;50.860;13.466;2023-04-15T13:36:46;13.20;99.90
3194;DHT22;1608;50.860;13.466;2023-04-15T13:39:12;13.20;99.90
3194;DHT22;1608;50.860;13.466;2023-04-15T13:41:39;13.30;99.90
3194;DHT22;1608;50.860;13.466;2023-04-15T13:44:06;13.40;99.90
3194;DHT22;1608;50.860;13.466;2023-04-15T13:46:33;13.30;99.90
3194;DHT22;1608;50.860;13.466;2023-04-15T13:49:01;13.30;99.90
3194;DHT22;1608;50.860;13.466;2023-04-15T13:51:28;13.30;99.90
3194;DHT22;1608;50.860;13.466;2023-04-15T13:53:55;13.40;99.90
3194;DHT22;1608;50.860;13.466;2023-04-15T13:56:22;13.50;99.90
3194;DHT22;1608;50.860;13.466;2023-04-15T13:58:51;13.60;99.90
3194;DHT22;1608;50.860;13.466;2023-04-15T14:01:19;13.80;99.90
3194;DHT22;1608;50.860;13.466;2023-04-15T14:03:46;13.90;99.90
3194;DHT22;1608;50.860;13.466;2023-04-15T14:06:14;14.20;99.90
3194;DHT22;1608;50.860;13.466;2023-04-15T14:08:41;14.20;99.90
3194;DHT22;1608;50.860;13.466;2023-04-15T14:11:08;14.40;99.90
3194;DHT22;1608;50.860;13.466;2023-04-15T14:13:35;14.50;99.90
3194;DHT22;1608;50.860;13.466;2023-04-15T14:16:02;14.50;99.90
3194;DHT22;1608;50.860;13.466;2023-04-15T14:18:28;14.50;99.90
3194;DHT22;1608;50.860;13.466;2023-04-15T14:20:55;14.50;99.90
3194;DHT22;1608;50.860;13.466;2023-04-15T14:23:23;14.30;99.90
3194;DHT22;1608;50.860;13.466;2023-04-15T14:25:50;14.10;99.90
3194;DHT22;1608;50.860;13.466;2023-04-15T14:28:17;14.00;99.90
3194;DHT22;1608;50.860;13.466;2023-04-15T14:30:44;13.90;99.90
3194;DHT22;1608;50.860;13.466;2023-04-15T14:33:11;13.90;99.90
3194;DHT22;1608;50.860;13.466;2023-04-15T14:35:38;13.90;99.90
3194;DHT22;1608;50.860;13.466;2023-04-15T14:38:04;14.00;99.90
3194;DHT22;1608;50.860;13.466;2023-04-15T14:40:36;14.10;99.90
3194;DHT22;1608;50.860;13.466;2023-04-15T14:43:03;14.00;99.90
3194;DHT22;1608;50.860;13.466;2023-04-15T14:45:30;14.10;99.90
3194;DHT22;1608;50.860;13.466;2023-04-15T14:47:57;14.10;99.90
3194;DHT22;1608;50.860;13.466;2023-04-15T14:50:24;14.10;99.90
3194;DHT22;1608;50.860;13.466;2023-04-15T14:52:51;14.30;99.90
3194;DHT22;1608;50.860;13.466;2023-04-15T14:55:17;14.30;99.90
3194;DHT22;1608;50.860;13.466;2023-04-15T14:57:47;14.30;99.90
3194;DHT22;1608;50.860;13.466;2023-04-15T15:00:14;14.20;99.90
3194;DHT22;1608;50.860;13.466;2023-04-15T15:02:41;14.20;99.90
3194;DHT22;1608;50.860;13.466;2023-04-15T15:05:08;14.10;99.90
3194;DHT22;1608;50.860;13.466;2023-04-15T15:07:37;14.20;99.90
3194;DHT22;1608;50.860;13.466;2023-04-15T15:10:05;14.10;99.90
3194;DHT22;1608;50.860;13.466;2023-04-15T15:12:32;14.20;99.90
3194;DHT22;1608;50.860;13.466;2023-04-15T15:15:02;14.20;99.90
3194;DHT22;1608;50.860;13.466;2023-04-15T15:17:29;14.20;99.90
3194;DHT22;1608;50.860;13.466;2023-04-15T15:19:56;14.40;99.90
3194;DHT22;1608;50.860;13.466;2023-04-15T15:22:23;14.50;99.90
3194;DHT22;1608;50.860;13.466;2023-04-15T15:24:50;14.70;99.90
3194;DHT22;1608;50.860;13.466;2023-04-15T15:27:18;14.80;99.90
3194;DHT22;1608;50.860;13.466;2023-04-15T15:29:44;14.80;99.90
3194;DHT22;1608;50.860;13.466;2023-04-15T15:32:13;14.80;99.90
3194;DHT22;1608;50.860;13.466;2023-04-15T15:34:40;14.70;99.90
3194;DHT22;1608;50.860;13.466;2023-04-15T15:37:07;14.60;99.90
3194;DHT22;1608;50.860;13.466;2023-04-15T15:39:34;14.50;99.90
3194;DHT22;1608;50.860;13.466;2023-04-15T15:42:01;14.40;99.90
3194;DHT22;1608;50.860;13.466;2023-04-15T15:44:28;14.20;99.90
3194;DHT22;1608;50.860;13.466;2023-04-15T15:46:55;14.30;99.90
3194;DHT22;1608;50.860;13.466;2023-04-15T15:49:23;14.30;99.90
3194;DHT22;1608;50.860;13.466;2023-04-15T15:51:52;14.20;99.90